SCIB weather

Butachauques Airport
Isla Butachauques, Los Lagos Region, Chile

Public forecast

Using degrees Celsius for public forecast. Weather courtesy of forecast.io.

Closest aviation weather report (METAR) to Butachauques Airport

Closest report is Mocopulli Airport, 25.5 nm (47.3 km) W. Retrieved 2019/10/14 00:00 UTC (44 minutes ago):

SCPQ 140000Z AUTO 16010KT CAVOK 10/01 Q1022

Closest aviation forecast (TAF) to Butachauques Airport

Forecast is more than 12 hours old.

Closest forecast is Mocopulli Airport, 25.5 nm (47.3 km) W. Retrieved 2019/10/13 12:00 UTC (13 hours ago):

TAF SCPQ 131047Z 1312/1324 19015KT CAVOK TN04/1312Z TX14/1319Z BECMG 1314/1316 15020KT